Terminal Aerodrome Forecast
Issued by NWS Lake Charles, LA

Home | Current Version | Previous Version | Text Only | Print | Product List | Glossary On
Versions: 1 2 3 4 5 6 7 8 9 10 11 12 13 14 15 16 17 18
981
FTUS44 KLCH 051731
TAFARA
TAF
KARA 051731Z 0518/0618 05006KT 5SM SHRA VCTS OVC007CB
      TEMPO 0518/0522 2SM SHRA BR OVC007
     FM052200 VRB05KT P6SM VCTS OVC007CB
      TEMPO 0522/0602 4SM SHRA BR OVC007
     FM060200 28012KT P6SM OVC007=

USA.gov is the U.S. government's official web portal to all federal, state and local government web resources and services.